F/V Eema 2 — FL9603 — position and weather

sailwx.info

Track history (hours):
 
Tides and Currents Weather Stations Pressure Air Temp Water Temp Dewpoint Dewpoint Depression Visibility Wind Speed Wind Dir Waves Ship Positions

F/V Eema 2

Last reported at 2014-Dec-21 19:31 UTC. Time now 2014-Dec-21 20:52 UTC.
Position N 43°23' W 001°40'.

Length 10 m.

Type: Fishing. MMSI: 22700000.

Date/timePositionNaut miles runAvg speedWind from/ knotsBaromVisibWave heightAir tempDewpointWater temp
2014-Dec-21 19:31N 43°23' W 001°40'0 0.0
2014-Dec-21 18:11N 43°23' W 001°40'0 0.0
2014-Dec-21 17:32N 43°23' W 001°40'0 0.0
2014-Dec-21 16:32N 43°23' W 001°40'0 0.0
2014-Dec-21 15:32N 43°23' W 001°40'5 4.9
2014-Dec-21 14:33N 43°28' W 001°40'  
2014-Dec-17 09:33N 43°24' W 001°41'0 0.0
2014-Dec-16 15:20N 43°25' W 001°41'51 1.6
2014-Dec-15 07:15N 44°13' W 001°19'3 1.6
2014-Dec-15 05:28N 44°10' W 001°19'1 1.0
2014-Dec-15 04:33N 44°11' W 001°19'2 1.5
2014-Dec-15 03:33N 44°13' W 001°19'1 0.1
2014-Dec-14 11:16N 44°14' W 001°19'9 0.7
2014-Dec-13 22:33N 44°24' W 001°18'0 0.0
2014-Dec-13 19:32N 44°24' W 001°18'0 0.4
2014-Dec-13 18:16N 44°23' W 001°17'5 0.6
2014-Dec-13 09:33N 44°27' W 001°21'1 0.9
2014-Dec-13 08:27N 44°28' W 001°21'0 0.2
2014-Dec-13 06:18N 44°28' W 001°20'2 2.5
2014-Dec-13 05:33N 44°30' W 001°21'0 0.4
2014-Dec-13 04:33N 44°30' W 001°21'2 1.6
2014-Dec-13 03:33N 44°31' W 001°20'2 1.7
2014-Dec-13 02:29N 44°30' W 001°20'1 0.7
2014-Dec-13 01:32N 44°29' W 001°20'0 0.0
2014-Dec-13 00:33N 44°29' W 001°20'0 0.0
2014-Dec-12 23:32N 44°29' W 001°20'0 0.0
2014-Dec-12 22:33N 44°29' W 001°20'0 0.0
2014-Dec-12 21:33N 44°29' W 001°20'0 0.0
2014-Dec-12 20:31N 44°29' W 001°20'0 0.0
2014-Dec-12 19:32N 44°29' W 001°20'1 0.6
2014-Dec-12 18:33N 44°29' W 001°21'0 0.1
2014-Dec-12 17:26N 44°29' W 001°21'0 0.3
2014-Dec-12 16:25N 44°29' W 001°21'1 0.8
2014-Dec-12 15:11N 44°30' W 001°20'0 0.7
2014-Dec-12 14:33N 44°30' W 001°21'0 0.2
2014-Dec-12 13:33N 44°30' W 001°21'5 5.1
2014-Dec-12 12:33N 44°35' W 001°23'5 4.9
2014-Dec-12 11:33N 44°39' W 001°27'1 0.7
2014-Dec-12 10:25N 44°38' W 001°28'2 1.8
2014-Dec-12 09:33N 44°36' W 001°28'2 1.9
2014-Dec-12 08:33N 44°34' W 001°28'1 0.9
2014-Dec-12 07:33N 44°35' W 001°28'2 1.8
2014-Dec-12 06:33N 44°37' W 001°27'1 1.3
2014-Dec-12 05:33N 44°38' W 001°27'2 1.5
2014-Dec-12 04:33N 44°37' W 001°27'2 2.0
2014-Dec-12 03:33N 44°35' W 001°27'3 3.0
2014-Dec-12 02:28N 44°38' W 001°28'1 0.6
2014-Dec-12 01:33N 44°39' W 001°28'0 0.0
2014-Dec-12 00:33N 44°39' W 001°28'0 0.0
2014-Dec-11 23:33N 44°39' W 001°28'0 0.0
2014-Dec-11 22:33N 44°39' W 001°28'0 0.0
2014-Dec-11 21:33N 44°39' W 001°28'0 0.0
2014-Dec-11 20:33N 44°39' W 001°28'0 0.2
2014-Dec-11 19:33N 44°38' W 001°28'  
Track history (hours):
 
Tides and Currents Weather Stations Pressure Air Temp Water Temp Dewpoint Dewpoint Depression Visibility Wind Speed Wind Dir Waves Ship Positions

F/V Eema 2

Last reported at 2014-Dec-21 19:31 UTC. Time now 2014-Dec-21 20:52 UTC.
Position N 43°23' W 001°40'.

Length 10 m.

Type: Fishing. MMSI: 22700000.

Date/timePositionNaut miles runAvg speedWind from/ knotsBaromVisibWave heightAir tempDewpointWater temp
2014-Dec-21 19:31N 43°23' W 001°40'0 0.0
2014-Dec-21 18:11N 43°23' W 001°40'0 0.0
2014-Dec-21 17:32N 43°23' W 001°40'0 0.0
2014-Dec-21 16:32N 43°23' W 001°40'0 0.0
2014-Dec-21 15:32N 43°23' W 001°40'5 4.9
2014-Dec-21 14:33N 43°28' W 001°40'  
2014-Dec-17 09:33N 43°24' W 001°41'0 0.0
2014-Dec-16 15:20N 43°25' W 001°41'51 1.6
2014-Dec-15 07:15N 44°13' W 001°19'3 1.6
2014-Dec-15 05:28N 44°10' W 001°19'1 1.0
2014-Dec-15 04:33N 44°11' W 001°19'2 1.5
2014-Dec-15 03:33N 44°13' W 001°19'1 0.1
2014-Dec-14 11:16N 44°14' W 001°19'9 0.7
2014-Dec-13 22:33N 44°24' W 001°18'0 0.0
2014-Dec-13 19:32N 44°24' W 001°18'0 0.4
2014-Dec-13 18:16N 44°23' W 001°17'5 0.6
2014-Dec-13 09:33N 44°27' W 001°21'1 0.9
2014-Dec-13 08:27N 44°28' W 001°21'0 0.2
2014-Dec-13 06:18N 44°28' W 001°20'2 2.5
2014-Dec-13 05:33N 44°30' W 001°21'0 0.4
2014-Dec-13 04:33N 44°30' W 001°21'2 1.6
2014-Dec-13 03:33N 44°31' W 001°20'2 1.7
2014-Dec-13 02:29N 44°30' W 001°20'1 0.7
2014-Dec-13 01:32N 44°29' W 001°20'0 0.0
2014-Dec-13 00:33N 44°29' W 001°20'0 0.0
2014-Dec-12 23:32N 44°29' W 001°20'0 0.0
2014-Dec-12 22:33N 44°29' W 001°20'0 0.0
2014-Dec-12 21:33N 44°29' W 001°20'0 0.0
2014-Dec-12 20:31N 44°29' W 001°20'0 0.0
2014-Dec-12 19:32N 44°29' W 001°20'1 0.6
2014-Dec-12 18:33N 44°29' W 001°21'0 0.1
2014-Dec-12 17:26N 44°29' W 001°21'0 0.3
2014-Dec-12 16:25N 44°29' W 001°21'1 0.8
2014-Dec-12 15:11N 44°30' W 001°20'0 0.7
2014-Dec-12 14:33N 44°30' W 001°21'0 0.2
2014-Dec-12 13:33N 44°30' W 001°21'5 5.1
2014-Dec-12 12:33N 44°35' W 001°23'5 4.9
2014-Dec-12 11:33N 44°39' W 001°27'1 0.7
2014-Dec-12 10:25N 44°38' W 001°28'2 1.8
2014-Dec-12 09:33N 44°36' W 001°28'2 1.9
2014-Dec-12 08:33N 44°34' W 001°28'1 0.9
2014-Dec-12 07:33N 44°35' W 001°28'2 1.8
2014-Dec-12 06:33N 44°37' W 001°27'1 1.3
2014-Dec-12 05:33N 44°38' W 001°27'2 1.5
2014-Dec-12 04:33N 44°37' W 001°27'2 2.0
2014-Dec-12 03:33N 44°35' W 001°27'3 3.0
2014-Dec-12 02:28N 44°38' W 001°28'1 0.6
2014-Dec-12 01:33N 44°39' W 001°28'0 0.0
2014-Dec-12 00:33N 44°39' W 001°28'0 0.0
2014-Dec-11 23:33N 44°39' W 001°28'0 0.0
2014-Dec-11 22:33N 44°39' W 001°28'0 0.0
2014-Dec-11 21:33N 44°39' W 001°28'0 0.0
2014-Dec-11 20:33N 44°39' W 001°28'0 0.2
2014-Dec-11 19:33N 44°38' W 001°28'  

Dump ship's entire track history